sensor_id;sensor_type;location;lat;lon;timestamp;P1;durP1;ratioP1;P2;durP2;ratioP2
63807;SDS011;49961;43.970;22.868;2022-08-03T00:00:54;4.77;;;2.30;;
63807;SDS011;49961;43.970;22.868;2022-08-03T00:01:55;7.37;;;3.10;;
63807;SDS011;49961;43.970;22.868;2022-08-03T00:02:55;9.77;;;2.87;;
63807;SDS011;49961;43.970;22.868;2022-08-03T00:03:56;4.57;;;2.67;;
63807;SDS011;49961;43.970;22.868;2022-08-03T00:04:56;6.90;;;2.57;;
63807;SDS011;49961;43.970;22.868;2022-08-03T00:05:57;8.10;;;2.20;;
63807;SDS011;49961;43.970;22.868;2022-08-03T00:06:57;3.63;;;2.40;;
63807;SDS011;49961;43.970;22.868;2022-08-03T00:07:58;4.03;;;2.70;;
63807;SDS011;49961;43.970;22.868;2022-08-03T00:08:59;5.07;;;2.60;;
63807;SDS011;49961;43.970;22.868;2022-08-03T00:10:00;5.07;;;2.40;;
63807;SDS011;49961;43.970;22.868;2022-08-03T00:11:00;2.97;;;2.33;;
63807;SDS011;49961;43.970;22.868;2022-08-03T00:12:01;5.33;;;2.57;;
63807;SDS011;49961;43.970;22.868;2022-08-03T00:13:02;5.47;;;2.60;;
63807;SDS011;49961;43.970;22.868;2022-08-03T00:14:04;8.23;;;2.80;;
63807;SDS011;49961;43.970;22.868;2022-08-03T00:15:05;5.43;;;2.50;;
63807;SDS011;49961;43.970;22.868;2022-08-03T00:16:06;4.67;;;2.30;;
63807;SDS011;49961;43.970;22.868;2022-08-03T00:17:06;4.63;;;2.50;;
63807;SDS011;49961;43.970;22.868;2022-08-03T00:18:07;4.83;;;2.53;;
63807;SDS011;49961;43.970;22.868;2022-08-03T00:19:08;4.53;;;2.40;;
63807;SDS011;49961;43.970;22.868;2022-08-03T00:20:09;4.70;;;2.47;;
63807;SDS011;49961;43.970;22.868;2022-08-03T00:21:10;3.70;;;2.40;;
63807;SDS011;49961;43.970;22.868;2022-08-03T00:22:11;3.33;;;2.30;;
63807;SDS011;49961;43.970;22.868;2022-08-03T00:23:11;4.13;;;2.40;;
63807;SDS011;49961;43.970;22.868;2022-08-03T00:24:12;3.33;;;2.23;;
63807;SDS011;49961;43.970;22.868;2022-08-03T00:25:12;2.93;;;2.20;;
63807;SDS011;49961;43.970;22.868;2022-08-03T00:26:13;4.07;;;2.40;;
63807;SDS011;49961;43.970;22.868;2022-08-03T00:27:13;3.47;;;2.20;;
63807;SDS011;49961;43.970;22.868;2022-08-03T00:28:14;6.03;;;2.47;;
63807;SDS011;49961;43.970;22.868;2022-08-03T00:29:16;4.77;;;2.10;;
63807;SDS011;49961;43.970;22.868;2022-08-03T00:30:16;5.17;;;2.63;;
63807;SDS011;49961;43.970;22.868;2022-08-03T00:31:17;4.60;;;2.40;;
63807;SDS011;49961;43.970;22.868;2022-08-03T00:32:17;3.80;;;2.37;;
63807;SDS011;49961;43.970;22.868;2022-08-03T00:33:18;5.87;;;2.80;;
63807;SDS011;49961;43.970;22.868;2022-08-03T00:34:18;6.30;;;2.63;;
63807;SDS011;49961;43.970;22.868;2022-08-03T00:35:19;4.43;;;2.00;;
63807;SDS011;49961;43.970;22.868;2022-08-03T00:36:19;3.67;;;1.90;;
63807;SDS011;49961;43.970;22.868;2022-08-03T04:38:43;3.73;;;2.10;;
63807;SDS011;49961;43.970;22.868;2022-08-03T04:40:05;3.43;;;1.90;;
63807;SDS011;49961;43.970;22.868;2022-08-03T04:41:08;5.47;;;2.33;;
63807;SDS011;49961;43.970;22.868;2022-08-03T04:42:10;6.23;;;2.53;;
63807;SDS011;49961;43.970;22.868;2022-08-03T04:43:13;6.53;;;2.40;;
63807;SDS011;49961;43.970;22.868;2022-08-03T04:44:17;4.30;;;2.30;;
63807;SDS011;49961;43.970;22.868;2022-08-03T04:45:20;7.77;;;2.63;;
63807;SDS011;49961;43.970;22.868;2022-08-03T04:46:22;5.30;;;2.10;;
63807;SDS011;49961;43.970;22.868;2022-08-03T04:47:25;6.40;;;2.57;;
63807;SDS011;49961;43.970;22.868;2022-08-03T04:48:26;5.20;;;2.20;;
63807;SDS011;49961;43.970;22.868;2022-08-03T04:49:27;5.63;;;2.37;;
63807;SDS011;49961;43.970;22.868;2022-08-03T04:50:29;7.30;;;2.80;;
63807;SDS011;49961;43.970;22.868;2022-08-03T04:51:29;6.40;;;2.47;;
63807;SDS011;49961;43.970;22.868;2022-08-03T04:52:30;6.53;;;2.97;;
63807;SDS011;49961;43.970;22.868;2022-08-03T04:53:32;5.50;;;2.50;;
63807;SDS011;49961;43.970;22.868;2022-08-03T04:54:42;4.30;;;2.50;;
63807;SDS011;49961;43.970;22.868;2022-08-03T04:55:44;4.47;;;2.30;;
63807;SDS011;49961;43.970;22.868;2022-08-03T04:56:44;4.80;;;2.50;;
63807;SDS011;49961;43.970;22.868;2022-08-03T04:57:44;4.17;;;2.20;;
63807;SDS011;49961;43.970;22.868;2022-08-03T04:58:45;4.80;;;2.10;;
63807;SDS011;49961;43.970;22.868;2022-08-03T04:59:45;4.57;;;2.07;;
63807;SDS011;49961;43.970;22.868;2022-08-03T05:00:48;6.23;;;2.37;;
63807;SDS011;49961;43.970;22.868;2022-08-03T05:01:51;6.33;;;2.33;;
63807;SDS011;49961;43.970;22.868;2022-08-03T05:02:52;5.83;;;2.57;;
63807;SDS011;49961;43.970;22.868;2022-08-03T05:03:53;8.97;;;2.70;;
63807;SDS011;49961;43.970;22.868;2022-08-03T05:04:53;3.93;;;2.57;;
63807;SDS011;49961;43.970;22.868;2022-08-03T05:05:54;4.53;;;2.50;;
63807;SDS011;49961;43.970;22.868;2022-08-03T05:06:55;7.53;;;2.33;;
63807;SDS011;49961;43.970;22.868;2022-08-03T05:07:55;4.17;;;2.30;;
63807;SDS011;49961;43.970;22.868;2022-08-03T05:08:55;4.13;;;2.50;;
63807;SDS011;49961;43.970;22.868;2022-08-03T05:09:56;4.93;;;2.50;;
63807;SDS011;49961;43.970;22.868;2022-08-03T05:10:56;3.13;;;2.20;;
63807;SDS011;49961;43.970;22.868;2022-08-03T05:11:57;4.30;;;2.67;;
63807;SDS011;49961;43.970;22.868;2022-08-03T05:12:57;6.10;;;2.37;;
63807;SDS011;49961;43.970;22.868;2022-08-03T05:13:58;5.40;;;2.80;;
63807;SDS011;49961;43.970;22.868;2022-08-03T05:14:59;4.77;;;2.30;;
63807;SDS011;49961;43.970;22.868;2022-08-03T05:16:00;4.90;;;2.40;;
63807;SDS011;49961;43.970;22.868;2022-08-03T05:17:01;4.33;;;2.50;;
63807;SDS011;49961;43.970;22.868;2022-08-03T05:18:01;4.40;;;2.50;;
63807;SDS011;49961;43.970;22.868;2022-08-03T05:19:02;4.17;;;2.50;;
63807;SDS011;49961;43.970;22.868;2022-08-03T05:20:02;4.83;;;2.53;;
63807;SDS011;49961;43.970;22.868;2022-08-03T05:21:03;5.80;;;2.83;;
63807;SDS011;49961;43.970;22.868;2022-08-03T05:22:04;5.50;;;2.90;;
63807;SDS011;49961;43.970;22.868;2022-08-03T05:23:04;6.83;;;2.63;;
63807;SDS011;49961;43.970;22.868;2022-08-03T05:24:05;6.87;;;2.50;;
63807;SDS011;49961;43.970;22.868;2022-08-03T05:25:05;6.13;;;2.70;;
63807;SDS011;49961;43.970;22.868;2022-08-03T05:26:06;6.17;;;2.43;;
63807;SDS011;49961;43.970;22.868;2022-08-03T05:27:07;7.73;;;2.40;;
63807;SDS011;49961;43.970;22.868;2022-08-03T05:28:07;5.43;;;2.30;;
63807;SDS011;49961;43.970;22.868;2022-08-03T05:29:08;8.83;;;2.30;;
63807;SDS011;49961;43.970;22.868;2022-08-03T05:30:08;5.27;;;2.20;;
63807;SDS011;49961;43.970;22.868;2022-08-03T05:31:09;3.53;;;2.33;;
63807;SDS011;49961;43.970;22.868;2022-08-03T05:32:09;5.13;;;2.23;;
63807;SDS011;49961;43.970;22.868;2022-08-03T05:33:10;4.27;;;2.23;;
63807;SDS011;49961;43.970;22.868;2022-08-03T05:34:10;3.27;;;2.20;;
63807;SDS011;49961;43.970;22.868;2022-08-03T05:35:11;5.93;;;2.57;;
63807;SDS011;49961;43.970;22.868;2022-08-03T05:36:11;3.90;;;2.27;;
63807;SDS011;49961;43.970;22.868;2022-08-03T05:37:12;2.70;;;2.20;;
63807;SDS011;49961;43.970;22.868;2022-08-03T05:38:12;6.40;;;2.53;;
63807;SDS011;49961;43.970;22.868;2022-08-03T05:39:13;4.93;;;2.37;;
63807;SDS011;49961;43.970;22.868;2022-08-03T05:40:13;7.30;;;2.50;;
63807;SDS011;49961;43.970;22.868;2022-08-03T05:41:14;5.40;;;2.37;;
63807;SDS011;49961;43.970;22.868;2022-08-03T05:42:14;4.57;;;2.30;;
63807;SDS011;49961;43.970;22.868;2022-08-03T05:43:15;3.73;;;2.40;;
63807;SDS011;49961;43.970;22.868;2022-08-03T05:44:16;6.27;;;2.67;;
63807;SDS011;49961;43.970;22.868;2022-08-03T05:45:16;3.20;;;2.30;;
63807;SDS011;49961;43.970;22.868;2022-08-03T05:46:17;3.97;;;2.70;;
63807;SDS011;49961;43.970;22.868;2022-08-03T05:47:18;7.13;;;2.30;;
63807;SDS011;49961;43.970;22.868;2022-08-03T05:48:18;3.83;;;2.53;;
63807;SDS011;49961;43.970;22.868;2022-08-03T05:49:19;4.23;;;2.50;;
63807;SDS011;49961;43.970;22.868;2022-08-03T05:50:20;3.27;;;2.50;;
63807;SDS011;49961;43.970;22.868;2022-08-03T05:51:20;5.53;;;2.67;;
63807;SDS011;49961;43.970;22.868;2022-08-03T05:52:21;7.27;;;2.90;;
63807;SDS011;49961;43.970;22.868;2022-08-03T05:53:21;4.63;;;2.70;;
63807;SDS011;49961;43.970;22.868;2022-08-03T05:54:22;7.10;;;2.60;;
63807;SDS011;49961;43.970;22.868;2022-08-03T05:55:22;5.60;;;2.77;;
63807;SDS011;49961;43.970;22.868;2022-08-03T05:56:23;4.17;;;2.30;;
63807;SDS011;49961;43.970;22.868;2022-08-03T05:57:27;6.00;;;3.13;;
63807;SDS011;49961;43.970;22.868;2022-08-03T05:58:27;4.63;;;2.43;;
63807;SDS011;49961;43.970;22.868;2022-08-03T05:59:28;7.07;;;2.83;;
63807;SDS011;49961;43.970;22.868;2022-08-03T06:00:28;6.03;;;2.47;;
63807;SDS011;49961;43.970;22.868;2022-08-03T06:01:29;4.40;;;2.60;;
63807;SDS011;49961;43.970;22.868;2022-08-03T06:02:32;4.07;;;2.60;;
63807;SDS011;49961;43.970;22.868;2022-08-03T06:03:32;4.67;;;2.40;;
63807;SDS011;49961;43.970;22.868;2022-08-03T06:04:33;6.07;;;2.80;;
63807;SDS011;49961;43.970;22.868;2022-08-03T06:05:33;5.93;;;2.63;;
63807;SDS011;49961;43.970;22.868;2022-08-03T06:06:35;6.63;;;2.50;;
63807;SDS011;49961;43.970;22.868;2022-08-03T06:07:36;5.47;;;2.70;;
63807;SDS011;49961;43.970;22.868;2022-08-03T06:08:36;4.13;;;2.40;;
63807;SDS011;49961;43.970;22.868;2022-08-03T06:09:37;4.83;;;2.50;;
63807;SDS011;49961;43.970;22.868;2022-08-03T06:10:37;4.33;;;2.30;;
63807;SDS011;49961;43.970;22.868;2022-08-03T06:11:38;4.30;;;2.67;;
63807;SDS011;49961;43.970;22.868;2022-08-03T06:12:40;4.03;;;2.73;;
63807;SDS011;49961;43.970;22.868;2022-08-03T06:13:41;3.37;;;2.50;;
63807;SDS011;49961;43.970;22.868;2022-08-03T06:14:42;6.10;;;2.73;;
63807;SDS011;49961;43.970;22.868;2022-08-03T06:15:42;6.27;;;2.70;;
63807;SDS011;49961;43.970;22.868;2022-08-03T06:16:43;4.33;;;2.33;;
63807;SDS011;49961;43.970;22.868;2022-08-03T06:17:47;4.57;;;2.60;;
63807;SDS011;49961;43.970;22.868;2022-08-03T06:18:49;6.23;;;2.60;;
63807;SDS011;49961;43.970;22.868;2022-08-03T06:19:50;4.27;;;2.77;;
63807;SDS011;49961;43.970;22.868;2022-08-03T06:20:52;4.17;;;2.47;;
63807;SDS011;49961;43.970;22.868;2022-08-03T06:21:53;5.77;;;2.60;;
63807;SDS011;49961;43.970;22.868;2022-08-03T06:22:54;5.83;;;2.70;;
63807;SDS011;49961;43.970;22.868;2022-08-03T06:23:54;4.60;;;2.53;;
63807;SDS011;49961;43.970;22.868;2022-08-03T06:24:55;4.53;;;2.77;;
63807;SDS011;49961;43.970;22.868;2022-08-03T06:25:55;5.90;;;2.83;;
63807;SDS011;49961;43.970;22.868;2022-08-03T06:26:56;5.43;;;2.80;;
63807;SDS011;49961;43.970;22.868;2022-08-03T06:27:56;5.33;;;2.90;;
63807;SDS011;49961;43.970;22.868;2022-08-03T06:28:58;6.50;;;3.10;;
63807;SDS011;49961;43.970;22.868;2022-08-03T06:29:59;5.87;;;3.00;;
63807;SDS011;49961;43.970;22.868;2022-08-03T06:31:00;15.23;;;3.17;;
63807;SDS011;49961;43.970;22.868;2022-08-03T06:32:00;5.00;;;2.90;;
63807;SDS011;49961;43.970;22.868;2022-08-03T06:33:01;5.43;;;3.00;;
63807;SDS011;49961;43.970;22.868;2022-08-03T06:34:02;4.27;;;2.70;;
63807;SDS011;49961;43.970;22.868;2022-08-03T06:35:04;3.97;;;2.73;;
63807;SDS011;49961;43.970;22.868;2022-08-03T06:36:08;6.97;;;3.10;;
63807;SDS011;49961;43.970;22.868;2022-08-03T06:37:08;6.57;;;2.67;;
63807;SDS011;49961;43.970;22.868;2022-08-03T06:38:09;5.60;;;2.87;;
63807;SDS011;49961;43.970;22.868;2022-08-03T06:39:09;5.87;;;3.00;;
63807;SDS011;49961;43.970;22.868;2022-08-03T06:40:14;4.50;;;2.67;;
63807;SDS011;49961;43.970;22.868;2022-08-03T06:41:16;4.70;;;2.90;;
63807;SDS011;49961;43.970;22.868;2022-08-03T06:42:17;3.60;;;2.50;;
63807;SDS011;49961;43.970;22.868;2022-08-03T06:43:17;4.20;;;2.87;;
63807;SDS011;49961;43.970;22.868;2022-08-03T06:44:18;7.33;;;3.77;;
63807;SDS011;49961;43.970;22.868;2022-08-03T06:45:19;4.13;;;2.93;;
63807;SDS011;49961;43.970;22.868;2022-08-03T06:46:19;6.67;;;2.57;;
63807;SDS011;49961;43.970;22.868;2022-08-03T06:47:20;4.40;;;2.70;;
63807;SDS011;49961;43.970;22.868;2022-08-03T06:48:20;5.67;;;2.70;;
63807;SDS011;49961;43.970;22.868;2022-08-03T06:49:21;4.67;;;2.50;;
63807;SDS011;49961;43.970;22.868;2022-08-03T06:50:22;4.67;;;2.83;;
63807;SDS011;49961;43.970;22.868;2022-08-03T06:51:22;4.23;;;2.90;;
63807;SDS011;49961;43.970;22.868;2022-08-03T06:52:23;5.17;;;3.30;;
63807;SDS011;49961;43.970;22.868;2022-08-03T06:53:23;5.50;;;2.93;;
63807;SDS011;49961;43.970;22.868;2022-08-03T06:54:24;5.13;;;2.90;;
63807;SDS011;49961;43.970;22.868;2022-08-03T06:55:25;6.07;;;3.00;;
63807;SDS011;49961;43.970;22.868;2022-08-03T06:56:26;5.53;;;2.93;;
63807;SDS011;49961;43.970;22.868;2022-08-03T06:57:26;4.83;;;2.77;;
63807;SDS011;49961;43.970;22.868;2022-08-03T06:58:27;6.83;;;2.93;;
63807;SDS011;49961;43.970;22.868;2022-08-03T06:59:27;3.63;;;2.80;;
63807;SDS011;49961;43.970;22.868;2022-08-03T07:00:28;6.30;;;3.20;;
63807;SDS011;49961;43.970;22.868;2022-08-03T07:01:29;5.37;;;2.97;;
63807;SDS011;49961;43.970;22.868;2022-08-03T07:02:30;6.43;;;3.77;;
63807;SDS011;49961;43.970;22.868;2022-08-03T07:03:30;5.00;;;2.90;;
63807;SDS011;49961;43.970;22.868;2022-08-03T07:04:31;3.80;;;2.60;;
63807;SDS011;49961;43.970;22.868;2022-08-03T07:05:32;4.07;;;3.10;;
63807;SDS011;49961;43.970;22.868;2022-08-03T07:06:34;6.73;;;2.83;;
63807;SDS011;49961;43.970;22.868;2022-08-03T07:07:34;8.27;;;3.10;;
63807;SDS011;49961;43.970;22.868;2022-08-03T07:08:35;5.40;;;3.00;;
63807;SDS011;49961;43.970;22.868;2022-08-03T07:09:36;6.13;;;2.90;;
63807;SDS011;49961;43.970;22.868;2022-08-03T07:10:36;6.00;;;2.67;;
63807;SDS011;49961;43.970;22.868;2022-08-03T07:11:37;8.23;;;3.27;;
63807;SDS011;49961;43.970;22.868;2022-08-03T07:12:38;5.17;;;2.93;;
63807;SDS011;49961;43.970;22.868;2022-08-03T07:13:39;6.57;;;3.00;;
63807;SDS011;49961;43.970;22.868;2022-08-03T07:14:40;5.40;;;2.87;;
63807;SDS011;49961;43.970;22.868;2022-08-03T07:15:40;8.03;;;2.80;;
63807;SDS011;49961;43.970;22.868;2022-08-03T07:16:41;4.63;;;2.70;;
63807;SDS011;49961;43.970;22.868;2022-08-03T07:17:41;3.53;;;2.70;;
63807;SDS011;49961;43.970;22.868;2022-08-03T07:18:42;4.77;;;2.60;;
63807;SDS011;49961;43.970;22.868;2022-08-03T07:19:42;3.43;;;2.60;;
63807;SDS011;49961;43.970;22.868;2022-08-03T07:20:43;6.37;;;2.80;;
63807;SDS011;49961;43.970;22.868;2022-08-03T07:21:44;3.93;;;2.63;;
63807;SDS011;49961;43.970;22.868;2022-08-03T07:22:44;3.80;;;2.87;;
63807;SDS011;49961;43.970;22.868;2022-08-03T07:23:45;5.10;;;2.63;;
63807;SDS011;49961;43.970;22.868;2022-08-03T07:24:45;4.17;;;2.60;;
63807;SDS011;49961;43.970;22.868;2022-08-03T07:25:46;7.13;;;2.90;;
63807;SDS011;49961;43.970;22.868;2022-08-03T07:26:47;3.27;;;2.50;;
63807;SDS011;49961;43.970;22.868;2022-08-03T07:27:47;5.83;;;2.80;;
63807;SDS011;49961;43.970;22.868;2022-08-03T07:28:48;4.27;;;2.90;;
63807;SDS011;49961;43.970;22.868;2022-08-03T07:29:49;3.23;;;2.60;;
63807;SDS011;49961;43.970;22.868;2022-08-03T07:30:49;5.97;;;3.10;;
63807;SDS011;49961;43.970;22.868;2022-08-03T07:31:50;4.20;;;2.87;;
63807;SDS011;49961;43.970;22.868;2022-08-03T07:32:50;4.60;;;2.77;;
63807;SDS011;49961;43.970;22.868;2022-08-03T07:33:51;5.13;;;2.80;;
63807;SDS011;49961;43.970;22.868;2022-08-03T07:34:52;3.90;;;2.70;;
63807;SDS011;49961;43.970;22.868;2022-08-03T07:35:52;7.10;;;3.20;;
63807;SDS011;49961;43.970;22.868;2022-08-03T07:36:53;5.87;;;2.70;;
63807;SDS011;49961;43.970;22.868;2022-08-03T07:37:53;7.22;;;3.00;;
63807;SDS011;49961;43.970;22.868;2022-08-03T07:38:54;3.20;;;2.55;;
63807;SDS011;49961;43.970;22.868;2022-08-03T07:39:54;5.97;;;2.90;;
63807;SDS011;49961;43.970;22.868;2022-08-03T07:40:55;3.67;;;2.57;;
63807;SDS011;49961;43.970;22.868;2022-08-03T07:41:55;5.53;;;2.65;;
63807;SDS011;49961;43.970;22.868;2022-08-03T07:42:55;4.70;;;2.80;;
63807;SDS011;49961;43.970;22.868;2022-08-03T07:43:57;6.03;;;2.88;;
63807;SDS011;49961;43.970;22.868;2022-08-03T07:44:57;6.70;;;2.80;;
63807;SDS011;49961;43.970;22.868;2022-08-03T07:45:58;3.80;;;2.80;;
63807;SDS011;49961;43.970;22.868;2022-08-03T07:46:59;5.22;;;2.78;;
63807;SDS011;49961;43.970;22.868;2022-08-03T07:47:59;3.83;;;2.60;;
63807;SDS011;49961;43.970;22.868;2022-08-03T07:49:00;4.40;;;2.70;;
63807;SDS011;49961;43.970;22.868;2022-08-03T07:50:00;5.47;;;2.40;;
63807;SDS011;49961;43.970;22.868;2022-08-03T07:51:01;3.50;;;2.57;;
63807;SDS011;49961;43.970;22.868;2022-08-03T07:52:02;3.87;;;2.67;;
63807;SDS011;49961;43.970;22.868;2022-08-03T07:53:22;3.50;;;2.73;;
63807;SDS011;49961;43.970;22.868;2022-08-03T07:54:22;3.33;;;2.50;;
63807;SDS011;49961;43.970;22.868;2022-08-03T07:55:23;3.87;;;2.40;;
63807;SDS011;49961;43.970;22.868;2022-08-03T07:56:24;5.00;;;2.73;;
63807;SDS011;49961;43.970;22.868;2022-08-03T07:57:25;5.17;;;2.60;;
63807;SDS011;49961;43.970;22.868;2022-08-03T07:58:26;4.53;;;2.50;;
63807;SDS011;49961;43.970;22.868;2022-08-03T07:59:26;3.93;;;2.53;;
63807;SDS011;49961;43.970;22.868;2022-08-03T08:00:27;2.63;;;2.10;;
63807;SDS011;49961;43.970;22.868;2022-08-03T08:01:28;3.83;;;2.57;;
63807;SDS011;49961;43.970;22.868;2022-08-03T08:02:28;14.40;;;3.27;;
63807;SDS011;49961;43.970;22.868;2022-08-03T08:03:29;6.20;;;2.53;;
63807;SDS011;49961;43.970;22.868;2022-08-03T08:04:29;5.68;;;2.55;;
63807;SDS011;49961;43.970;22.868;2022-08-03T08:05:30;4.35;;;2.30;;
63807;SDS011;49961;43.970;22.868;2022-08-03T08:06:31;4.43;;;2.20;;
63807;SDS011;49961;43.970;22.868;2022-08-03T08:07:32;4.38;;;2.47;;
63807;SDS011;49961;43.970;22.868;2022-08-03T08:08:32;4.13;;;2.50;;
63807;SDS011;49961;43.970;22.868;2022-08-03T08:09:33;6.40;;;2.60;;
63807;SDS011;49961;43.970;22.868;2022-08-03T08:10:34;4.60;;;2.22;;
63807;SDS011;49961;43.970;22.868;2022-08-03T08:11:35;5.03;;;2.28;;
63807;SDS011;49961;43.970;22.868;2022-08-03T08:12:36;6.93;;;2.30;;
63807;SDS011;49961;43.970;22.868;2022-08-03T08:13:37;5.05;;;2.50;;
63807;SDS011;49961;43.970;22.868;2022-08-03T08:14:38;5.03;;;2.42;;
63807;SDS011;49961;43.970;22.868;2022-08-03T08:15:38;4.57;;;2.27;;
63807;SDS011;49961;43.970;22.868;2022-08-03T08:16:39;5.90;;;2.60;;
63807;SDS011;49961;43.970;22.868;2022-08-03T08:17:43;3.73;;;2.60;;
63807;SDS011;49961;43.970;22.868;2022-08-03T08:18:46;3.83;;;2.40;;
63807;SDS011;49961;43.970;22.868;2022-08-03T08:19:49;6.43;;;2.30;;
63807;SDS011;49961;43.970;22.868;2022-08-03T08:20:50;3.57;;;2.40;;
63807;SDS011;49961;43.970;22.868;2022-08-03T08:21:50;4.20;;;2.53;;
63807;SDS011;49961;43.970;22.868;2022-08-03T08:22:51;3.73;;;3.00;;
63807;SDS011;49961;43.970;22.868;2022-08-03T08:23:54;3.90;;;2.73;;
63807;SDS011;49961;43.970;22.868;2022-08-03T08:24:54;4.18;;;2.53;;
63807;SDS011;49961;43.970;22.868;2022-08-03T08:25:55;5.13;;;2.60;;
63807;SDS011;49961;43.970;22.868;2022-08-03T08:26:55;3.37;;;2.43;;
63807;SDS011;49961;43.970;22.868;2022-08-03T08:27:56;5.30;;;2.60;;
63807;SDS011;49961;43.970;22.868;2022-08-03T08:29:00;6.40;;;3.03;;
63807;SDS011;49961;43.970;22.868;2022-08-03T08:30:03;11.30;;;3.20;;
63807;SDS011;49961;43.970;22.868;2022-08-03T08:31:04;4.13;;;2.77;;
63807;SDS011;49961;43.970;22.868;2022-08-03T08:32:04;10.50;;;2.93;;
63807;SDS011;49961;43.970;22.868;2022-08-03T08:33:05;7.60;;;2.90;;
63807;SDS011;49961;43.970;22.868;2022-08-03T08:34:05;4.75;;;2.67;;
63807;SDS011;49961;43.970;22.868;2022-08-03T08:35:06;6.50;;;2.50;;
63807;SDS011;49961;43.970;22.868;2022-08-03T08:36:08;7.97;;;2.78;;
63807;SDS011;49961;43.970;22.868;2022-08-03T08:37:08;5.53;;;2.57;;
63807;SDS011;49961;43.970;22.868;2022-08-03T08:38:09;13.77;;;3.08;;
63807;SDS011;49961;43.970;22.868;2022-08-03T08:39:09;10.30;;;3.28;;
63807;SDS011;49961;43.970;22.868;2022-08-03T08:40:11;8.27;;;3.05;;
63807;SDS011;49961;43.970;22.868;2022-08-03T08:41:15;5.50;;;3.03;;
63807;SDS011;49961;43.970;22.868;2022-08-03T08:42:16;6.10;;;2.58;;
63807;SDS011;49961;43.970;22.868;2022-08-03T08:43:17;9.20;;;2.70;;
63807;SDS011;49961;43.970;22.868;2022-08-03T08:44:17;3.30;;;2.42;;
63807;SDS011;49961;43.970;22.868;2022-08-03T08:45:18;3.85;;;2.40;;
63807;SDS011;49961;43.970;22.868;2022-08-03T08:46:19;5.88;;;3.00;;
63807;SDS011;49961;43.970;22.868;2022-08-03T08:47:24;14.90;;;3.30;;
63807;SDS011;49961;43.970;22.868;2022-08-03T08:48:28;13.68;;;3.22;;
63807;SDS011;49961;43.970;22.868;2022-08-03T08:49:29;7.53;;;2.90;;
63807;SDS011;49961;43.970;22.868;2022-08-03T08:50:31;4.05;;;2.40;;
63807;SDS011;49961;43.970;22.868;2022-08-03T08:51:33;7.40;;;3.00;;
63807;SDS011;49961;43.970;22.868;2022-08-03T08:52:39;6.35;;;2.60;;
63807;SDS011;49961;43.970;22.868;2022-08-03T08:53:44;4.45;;;2.20;;
63807;SDS011;49961;43.970;22.868;2022-08-03T08:54:48;4.55;;;2.50;;
63807;SDS011;49961;43.970;22.868;2022-08-03T08:55:51;4.68;;;2.60;;
63807;SDS011;49961;43.970;22.868;2022-08-03T08:56:54;11.20;;;2.85;;
63807;SDS011;49961;43.970;22.868;2022-08-03T08:58:00;3.75;;;2.45;;
63807;SDS011;49961;43.970;22.868;2022-08-03T08:59:05;6.10;;;2.45;;
63807;SDS011;49961;43.970;22.868;2022-08-03T09:00:07;4.22;;;2.28;;
63807;SDS011;49961;43.970;22.868;2022-08-03T09:01:10;5.57;;;2.30;;
63807;SDS011;49961;43.970;22.868;2022-08-03T09:02:10;4.82;;;2.70;;
63807;SDS011;49961;43.970;22.868;2022-08-03T09:03:11;6.38;;;3.08;;
63807;SDS011;49961;43.970;22.868;2022-08-03T09:04:13;7.68;;;2.38;;
63807;SDS011;49961;43.970;22.868;2022-08-03T09:05:15;7.00;;;2.55;;
63807;SDS011;49961;43.970;22.868;2022-08-03T09:06:17;9.52;;;2.50;;
63807;SDS011;49961;43.970;22.868;2022-08-03T09:07:19;6.65;;;2.20;;
63807;SDS011;49961;43.970;22.868;2022-08-03T09:08:20;7.13;;;2.38;;
63807;SDS011;49961;43.970;22.868;2022-08-03T09:09:22;2.80;;;2.08;;
63807;SDS011;49961;43.970;22.868;2022-08-03T09:10:22;4.03;;;1.92;;
63807;SDS011;49961;43.970;22.868;2022-08-03T09:11:23;4.38;;;2.10;;
63807;SDS011;49961;43.970;22.868;2022-08-03T09:12:23;14.40;;;2.50;;
63807;SDS011;49961;43.970;22.868;2022-08-03T09:13:24;8.32;;;2.60;;
63807;SDS011;49961;43.970;22.868;2022-08-03T09:14:25;6.50;;;2.13;;
63807;SDS011;49961;43.970;22.868;2022-08-03T09:15:28;5.60;;;2.30;;
63807;SDS011;49961;43.970;22.868;2022-08-03T09:16:30;7.05;;;2.10;;
63807;SDS011;49961;43.970;22.868;2022-08-03T09:17:40;7.75;;;2.70;;
63807;SDS011;49961;43.970;22.868;2022-08-03T09:18:41;4.65;;;2.40;;
63807;SDS011;49961;43.970;22.868;2022-08-03T09:19:46;4.07;;;2.60;;
63807;SDS011;49961;43.970;22.868;2022-08-03T09:21:11;7.25;;;2.03;;
63807;SDS011;49961;43.970;22.868;2022-08-03T09:22:17;13.52;;;3.28;;
63807;SDS011;49961;43.970;22.868;2022-08-03T09:23:17;17.17;;;3.33;;
63807;SDS011;49961;43.970;22.868;2022-08-03T09:24:18;19.92;;;3.28;;
63807;SDS011;49961;43.970;22.868;2022-08-03T09:25:30;8.82;;;2.72;;
63807;SDS011;49961;43.970;22.868;2022-08-03T09:26:36;7.05;;;2.50;;
63807;SDS011;49961;43.970;22.868;2022-08-03T09:27:41;3.72;;;2.13;;
63807;SDS011;49961;43.970;22.868;2022-08-03T09:28:43;6.70;;;2.22;;
63807;SDS011;49961;43.970;22.868;2022-08-03T09:29:46;3.22;;;2.30;;
63807;SDS011;49961;43.970;22.868;2022-08-03T09:30:57;7.18;;;2.60;;
63807;SDS011;49961;43.970;22.868;2022-08-03T09:31:59;5.80;;;2.10;;
63807;SDS011;49961;43.970;22.868;2022-08-03T09:33:02;3.47;;;2.15;;
63807;SDS011;49961;43.970;22.868;2022-08-03T09:34:14;3.95;;;2.00;;
63807;SDS011;49961;43.970;22.868;2022-08-03T09:35:15;3.20;;;1.95;;
63807;SDS011;49961;43.970;22.868;2022-08-03T09:36:35;4.57;;;2.20;;
63807;SDS011;49961;43.970;22.868;2022-08-03T09:37:46;5.10;;;2.15;;
63807;SDS011;49961;43.970;22.868;2022-08-03T09:39:13;3.60;;;2.28;;
63807;SDS011;49961;43.970;22.868;2022-08-03T09:40:19;4.32;;;2.03;;
63807;SDS011;49961;43.970;22.868;2022-08-03T09:41:35;2.67;;;2.15;;
63807;SDS011;49961;43.970;22.868;2022-08-03T09:42:37;4.22;;;2.22;;
63807;SDS011;49961;43.970;22.868;2022-08-03T09:43:55;2.35;;;1.90;;
63807;SDS011;49961;43.970;22.868;2022-08-03T09:44:56;4.32;;;2.10;;
63807;SDS011;49961;43.970;22.868;2022-08-03T09:46:03;4.05;;;2.22;;
63807;SDS011;49961;43.970;22.868;2022-08-03T09:47:04;2.65;;;1.90;;
63807;SDS011;49961;43.970;22.868;2022-08-03T09:49:29;2.33;;;1.90;;
63807;SDS011;49961;43.970;22.868;2022-08-03T09:50:29;2.90;;;2.13;;
63807;SDS011;49961;43.970;22.868;2022-08-03T09:51:47;4.15;;;1.90;;
63807;SDS011;49961;43.970;22.868;2022-08-03T09:52:48;2.83;;;1.90;;
63807;SDS011;49961;43.970;22.868;2022-08-03T09:53:50;3.70;;;1.88;;
63807;SDS011;49961;43.970;22.868;2022-08-03T09:54:51;4.28;;;2.25;;
63807;SDS011;49961;43.970;22.868;2022-08-03T09:55:59;3.97;;;2.00;;
63807;SDS011;49961;43.970;22.868;2022-08-03T09:57:01;2.50;;;2.00;;
63807;SDS011;49961;43.970;22.868;2022-08-03T09:58:05;4.13;;;2.00;;
63807;SDS011;49961;43.970;22.868;2022-08-03T09:59:09;6.47;;;2.15;;
63807;SDS011;49961;43.970;22.868;2022-08-03T10:00:12;2.50;;;1.98;;
63807;SDS011;49961;43.970;22.868;2022-08-03T10:01:14;4.18;;;1.83;;
63807;SDS011;49961;43.970;22.868;2022-08-03T10:02:21;3.67;;;1.83;;
63807;SDS011;49961;43.970;22.868;2022-08-03T10:03:24;3.55;;;1.83;;
63807;SDS011;49961;43.970;22.868;2022-08-03T10:04:26;2.50;;;1.90;;
63807;SDS011;49961;43.970;22.868;2022-08-03T10:05:30;4.25;;;1.98;;
63807;SDS011;49961;43.970;22.868;2022-08-03T10:06:32;4.43;;;1.92;;
63807;SDS011;49961;43.970;22.868;2022-08-03T10:07:42;2.97;;;1.70;;
63807;SDS011;49961;43.970;22.868;2022-08-03T10:08:43;3.35;;;1.67;;
63807;SDS011;49961;43.970;22.868;2022-08-03T10:10:54;3.67;;;1.48;;